Santa Luzia, Brazil
Current Conditions -  °F | °C
As of 12:34 PM on Friday 24 Oct 2014 (Local Time) from SBIL Reporting Station
Light Rain Light Rain  
Wind Chill: 72°   Ceiling: 2000
Heat Index: 72°   Visibility: 1.8mi
Dew Point: 70°   Wind: 6mph
Humidity: 94%   Direction: 200°SSW
Pressure: 30.03"   Gusts: NA
Location:  15.43°S, 39.33°W
Report Text: SBIL 241534Z 20005KT 3000 -RADZ SCT006 BKN020 OVC100 22/21 Q1017
Loading
Personal Weather Stations






























Interactive Weather Map
Tropical Storm Tracking
New forecast layout! Learn more

10-Day Weather Forecast

Advertisements
Track Severe Weather on mobile